sensor_id;sensor_type;location;lat;lon;timestamp;pressure;altitude;pressure_sealevel;temperature;humidity
13734;BME280;43298;52.560;13.508;2023-03-04T00:01:53;101225.31;;;2.43;100.00
13734;BME280;43298;52.560;13.508;2023-03-04T00:04:19;101209.13;;;2.40;100.00
13734;BME280;43298;52.560;13.508;2023-03-04T00:06:45;101218.50;;;2.35;100.00
13734;BME280;43298;52.560;13.508;2023-03-04T00:09:11;101204.94;;;2.30;100.00
13734;BME280;43298;52.560;13.508;2023-03-04T00:11:37;101209.16;;;2.32;100.00
13734;BME280;43298;52.560;13.508;2023-03-04T00:14:02;101208.31;;;2.27;100.00
13734;BME280;43298;52.560;13.508;2023-03-04T00:16:28;101206.59;;;2.40;100.00
13734;BME280;43298;52.560;13.508;2023-03-04T00:18:55;101203.19;;;2.47;100.00
13734;BME280;43298;52.560;13.508;2023-03-04T00:21:21;101207.41;;;2.57;100.00
13734;BME280;43298;52.560;13.508;2023-03-04T00:23:48;101213.34;;;2.65;100.00
13734;BME280;43298;52.560;13.508;2023-03-04T00:26:15;101204.88;;;2.67;100.00
13734;BME280;43298;52.560;13.508;2023-03-04T00:28:41;101209.09;;;2.70;100.00
13734;BME280;43298;52.560;13.508;2023-03-04T00:31:08;101209.94;;;2.73;100.00
13734;BME280;43298;52.560;13.508;2023-03-04T00:33:34;101209.94;;;2.79;100.00
13734;BME280;43298;52.560;13.508;2023-03-04T00:36:02;101203.97;;;2.83;100.00
13734;BME280;43298;52.560;13.508;2023-03-04T00:38:28;101194.59;;;2.85;100.00
13734;BME280;43298;52.560;13.508;2023-03-04T00:40:54;101186.06;;;2.89;100.00
13734;BME280;43298;52.560;13.508;2023-03-04T00:43:20;101179.25;;;2.90;100.00
13734;BME280;43298;52.560;13.508;2023-03-04T00:45:46;101182.66;;;2.90;100.00
13734;BME280;43298;52.560;13.508;2023-03-04T00:48:12;101179.25;;;2.90;100.00
13734;BME280;43298;52.560;13.508;2023-03-04T00:50:39;101183.50;;;2.92;100.00
13734;BME280;43298;52.560;13.508;2023-03-04T00:53:05;101181.81;;;2.88;100.00
13734;BME280;43298;52.560;13.508;2023-03-04T00:55:31;101178.41;;;2.91;100.00
13734;BME280;43298;52.560;13.508;2023-03-04T00:57:56;101183.50;;;2.92;100.00
13734;BME280;43298;52.560;13.508;2023-03-04T01:00:23;101175.00;;;2.89;100.00
13734;BME280;43298;52.560;13.508;2023-03-04T01:02:48;101174.13;;;2.90;100.00
13734;BME280;43298;52.560;13.508;2023-03-04T01:05:14;101176.69;;;2.91;100.00
13734;BME280;43298;52.560;13.508;2023-03-04T01:07:40;101167.31;;;2.93;100.00
13734;BME280;43298;52.560;13.508;2023-03-04T01:10:09;101166.47;;;2.94;100.00
13734;BME280;43298;52.560;13.508;2023-03-04T01:12:35;101159.66;;;2.95;100.00
13734;BME280;43298;52.560;13.508;2023-03-04T01:15:02;101155.38;;;2.97;100.00
13734;BME280;43298;52.560;13.508;2023-03-04T01:17:28;101148.56;;;2.96;100.00
13734;BME280;43298;52.560;13.508;2023-03-04T01:19:54;101157.94;;;2.98;100.00
13734;BME280;43298;52.560;13.508;2023-03-04T01:22:20;101161.34;;;3.00;100.00
13734;BME280;43298;52.560;13.508;2023-03-04T01:24:45;101152.81;;;3.03;100.00
13734;BME280;43298;52.560;13.508;2023-03-04T01:27:11;101146.81;;;3.05;100.00
13734;BME280;43298;52.560;13.508;2023-03-04T01:29:37;101140.88;;;3.06;100.00
13734;BME280;43298;52.560;13.508;2023-03-04T01:32:03;101144.25;;;3.08;100.00
13734;BME280;43298;52.560;13.508;2023-03-04T01:34:29;101143.41;;;3.08;100.00
13734;BME280;43298;52.560;13.508;2023-03-04T01:36:55;101140.84;;;3.09;100.00
13734;BME280;43298;52.560;13.508;2023-03-04T01:39:21;101141.72;;;3.08;100.00
13734;BME280;43298;52.560;13.508;2023-03-04T01:41:47;101145.94;;;3.09;100.00
13734;BME280;43298;52.560;13.508;2023-03-04T01:44:13;101140.00;;;3.10;100.00
13734;BME280;43298;52.560;13.508;2023-03-04T01:46:46;101142.56;;;3.10;100.00
13734;BME280;43298;52.560;13.508;2023-03-04T01:49:13;101132.34;;;3.13;100.00
13734;BME280;43298;52.560;13.508;2023-03-04T01:51:43;101127.19;;;3.16;100.00
13734;BME280;43298;52.560;13.508;2023-03-04T01:54:11;101119.50;;;3.16;100.00
13734;BME280;43298;52.560;13.508;2023-03-04T01:56:38;101121.22;;;3.19;100.00
13734;BME280;43298;52.560;13.508;2023-03-04T01:59:14;101118.66;;;3.21;100.00
13734;BME280;43298;52.560;13.508;2023-03-04T02:01:53;101126.28;;;3.23;100.00
13734;BME280;43298;52.560;13.508;2023-03-04T02:04:28;101116.03;;;3.31;100.00
13734;BME280;43298;52.560;13.508;2023-03-04T02:06:56;101118.56;;;3.36;100.00
13734;BME280;43298;52.560;13.508;2023-03-04T02:09:22;101102.38;;;3.35;100.00
13734;BME280;43298;52.560;13.508;2023-03-04T02:11:52;101110.03;;;3.38;100.00
13734;BME280;43298;52.560;13.508;2023-03-04T02:14:19;101106.56;;;3.44;100.00
13734;BME280;43298;52.560;13.508;2023-03-04T02:16:45;101104.00;;;3.48;100.00
13734;BME280;43298;52.560;13.508;2023-03-04T02:22:03;101098.00;;;3.54;100.00
13734;BME280;43298;52.560;13.508;2023-03-04T02:25:00;101098.81;;;3.57;100.00
13734;BME280;43298;52.560;13.508;2023-03-04T02:27:24;101091.16;;;3.56;100.00
13734;BME280;43298;52.560;13.508;2023-03-04T02:29:50;101091.13;;;3.59;100.00
13734;BME280;43298;52.560;13.508;2023-03-04T02:32:16;101080.03;;;3.60;100.00
13734;BME280;43298;52.560;13.508;2023-03-04T02:34:48;101081.72;;;3.65;100.00
13734;BME280;43298;52.560;13.508;2023-03-04T02:37:16;101068.91;;;3.67;100.00
13734;BME280;43298;52.560;13.508;2023-03-04T02:39:45;101071.44;;;3.68;100.00
13734;BME280;43298;52.560;13.508;2023-03-04T02:42:12;101079.09;;;3.68;100.00
13734;BME280;43298;52.560;13.508;2023-03-04T02:44:41;101070.59;;;3.71;100.00
13734;BME280;43298;52.560;13.508;2023-03-04T02:47:10;101060.31;;;3.74;100.00
13734;BME280;43298;52.560;13.508;2023-03-04T02:49:38;101075.66;;;3.74;100.00
13734;BME280;43298;52.560;13.508;2023-03-04T02:52:13;101071.38;;;3.76;100.00
13734;BME280;43298;52.560;13.508;2023-03-04T02:54:39;101063.69;;;3.77;100.00
13734;BME280;43298;52.560;13.508;2023-03-04T02:57:09;101062.84;;;3.78;100.00
13734;BME280;43298;52.560;13.508;2023-03-04T02:59:38;101055.16;;;3.80;100.00
13734;BME280;43298;52.560;13.508;2023-03-04T03:02:04;101060.25;;;3.83;100.00
13734;BME280;43298;52.560;13.508;2023-03-04T03:04:31;101059.38;;;3.84;100.00
13734;BME280;43298;52.560;13.508;2023-03-04T03:06:57;101064.47;;;3.85;100.00
13734;BME280;43298;52.560;13.508;2023-03-04T03:09:22;101057.66;;;3.86;100.00
13734;BME280;43298;52.560;13.508;2023-03-04T03:11:48;101057.66;;;3.86;100.00
13734;BME280;43298;52.560;13.508;2023-03-04T03:14:14;101061.03;;;3.88;100.00
13734;BME280;43298;52.560;13.508;2023-03-04T03:16:40;101055.91;;;3.89;100.00
13734;BME280;43298;52.560;13.508;2023-03-04T03:19:06;101060.19;;;3.89;100.00
13734;BME280;43298;52.560;13.508;2023-03-04T03:21:32;101049.97;;;3.89;100.00
13734;BME280;43298;52.560;13.508;2023-03-04T03:23:58;101049.97;;;3.89;100.00
13734;BME280;43298;52.560;13.508;2023-03-04T03:26:23;101041.41;;;3.90;100.00
13734;BME280;43298;52.560;13.508;2023-03-04T03:28:49;101036.31;;;3.90;100.00
13734;BME280;43298;52.560;13.508;2023-03-04T03:31:15;101038.88;;;3.90;100.00
13734;BME280;43298;52.560;13.508;2023-03-04T03:33:41;101036.28;;;3.93;100.00
13734;BME280;43298;52.560;13.508;2023-03-04T03:36:07;101038.81;;;3.94;100.00
13734;BME280;43298;52.560;13.508;2023-03-04T03:38:33;101027.69;;;3.98;100.00
13734;BME280;43298;52.560;13.508;2023-03-04T03:40:59;101026.81;;;4.01;100.00
13734;BME280;43298;52.560;13.508;2023-03-04T03:43:25;101029.34;;;4.02;100.00
13734;BME280;43298;52.560;13.508;2023-03-04T03:45:51;101025.03;;;4.07;100.00
13734;BME280;43298;52.560;13.508;2023-03-04T03:48:17;101026.75;;;4.05;100.00
13734;BME280;43298;52.560;13.508;2023-03-04T03:50:43;101020.78;;;4.06;100.00
13734;BME280;43298;52.560;13.508;2023-03-04T03:53:10;101013.09;;;4.08;100.00
13734;BME280;43298;52.560;13.508;2023-03-04T03:55:36;101013.06;;;4.11;100.00
13734;BME280;43298;52.560;13.508;2023-03-04T03:58:03;101018.19;;;4.11;100.00
13734;BME280;43298;52.560;13.508;2023-03-04T04:00:29;101019.03;;;4.10;100.00
13734;BME280;43298;52.560;13.508;2023-03-04T04:02:57;101025.81;;;4.14;100.00
13734;BME280;43298;52.560;13.508;2023-03-04T04:05:24;101013.88;;;4.11;100.00
13734;BME280;43298;52.560;13.508;2023-03-04T04:07:50;101011.38;;;4.08;100.00
13734;BME280;43298;52.560;13.508;2023-03-04T04:10:16;101019.88;;;4.12;100.00
13734;BME280;43298;52.560;13.508;2023-03-04T04:12:42;101017.31;;;4.12;100.00
13734;BME280;43298;52.560;13.508;2023-03-04T04:15:11;101010.47;;;4.15;100.00
13734;BME280;43298;52.560;13.508;2023-03-04T04:17:37;101018.13;;;4.17;100.00
13734;BME280;43298;52.560;13.508;2023-03-04T04:20:04;101006.97;;;4.21;100.00
13734;BME280;43298;52.560;13.508;2023-03-04T04:22:30;101005.25;;;4.20;100.00
13734;BME280;43298;52.560;13.508;2023-03-04T04:24:56;101005.25;;;4.20;100.00
13734;BME280;43298;52.560;13.508;2023-03-04T04:27:22;101005.22;;;4.23;100.00
13734;BME280;43298;52.560;13.508;2023-03-04T04:29:47;100997.59;;;4.20;100.00
13734;BME280;43298;52.560;13.508;2023-03-04T04:32:13;100995.00;;;4.23;100.00
13734;BME280;43298;52.560;13.508;2023-03-04T04:34:39;101000.09;;;4.23;100.00
13734;BME280;43298;52.560;13.508;2023-03-04T04:37:05;100990.75;;;4.22;100.00
13734;BME280;43298;52.560;13.508;2023-03-04T04:39:31;100992.44;;;4.23;100.00
13734;BME280;43298;52.560;13.508;2023-03-04T04:41:56;100996.66;;;4.25;100.00
13734;BME280;43298;52.560;13.508;2023-03-04T04:44:22;100995.81;;;4.28;100.00
13734;BME280;43298;52.560;13.508;2023-03-04T04:46:48;100982.94;;;4.31;100.00
13734;BME280;43298;52.560;13.508;2023-03-04T04:49:14;100985.56;;;4.29;100.00
13734;BME280;43298;52.560;13.508;2023-03-04T04:51:40;100987.22;;;4.30;100.00
13734;BME280;43298;52.560;13.508;2023-03-04T04:54:06;100989.75;;;4.35;100.00
13734;BME280;43298;52.560;13.508;2023-03-04T04:56:32;100991.38;;;4.40;100.00
13734;BME280;43298;52.560;13.508;2023-03-04T04:59:03;100982.84;;;4.40;100.00
13734;BME280;43298;52.560;13.508;2023-03-04T05:01:29;100993.00;;;4.46;100.00
13734;BME280;43298;52.560;13.508;2023-03-04T05:03:55;100978.44;;;4.51;100.00
13734;BME280;43298;52.560;13.508;2023-03-04T05:06:24;100986.13;;;4.48;100.00
13734;BME280;43298;52.560;13.508;2023-03-04T05:08:50;100986.13;;;4.49;100.00
13734;BME280;43298;52.560;13.508;2023-03-04T05:11:17;100978.44;;;4.51;100.00
13734;BME280;43298;52.560;13.508;2023-03-04T05:13:44;100980.91;;;4.57;100.00
13734;BME280;43298;52.560;13.508;2023-03-04T05:16:10;100977.50;;;4.55;100.00
13734;BME280;43298;52.560;13.508;2023-03-04T05:18:36;100981.81;;;4.54;100.00
13734;BME280;43298;52.560;13.508;2023-03-04T05:21:03;100981.69;;;4.62;100.00
13734;BME280;43298;52.560;13.508;2023-03-04T05:23:33;100980.03;;;4.59;100.00
13734;BME280;43298;52.560;13.508;2023-03-04T05:26:00;100979.97;;;4.64;100.00
13734;BME280;43298;52.560;13.508;2023-03-04T05:28:27;100978.22;;;4.66;100.00
13734;BME280;43298;52.560;13.508;2023-03-04T05:30:53;100978.19;;;4.67;100.00
13734;BME280;43298;52.560;13.508;2023-03-04T05:33:19;100973.06;;;4.67;100.00
13734;BME280;43298;52.560;13.508;2023-03-04T05:35:46;100977.31;;;4.68;100.00
13734;BME280;43298;52.560;13.508;2023-03-04T05:38:16;100977.38;;;4.67;100.00
13734;BME280;43298;52.560;13.508;2023-03-04T05:40:42;100982.41;;;4.70;100.00
13734;BME280;43298;52.560;13.508;2023-03-04T05:43:09;100977.25;;;4.73;100.00
13734;BME280;43298;52.560;13.508;2023-03-04T05:45:36;100984.13;;;4.71;100.00
13734;BME280;43298;52.560;13.508;2023-03-04T05:48:02;100978.97;;;4.74;100.00
13734;BME280;43298;52.560;13.508;2023-03-04T05:50:29;100980.69;;;4.72;100.00
13734;BME280;43298;52.560;13.508;2023-03-04T05:52:55;100977.25;;;4.73;100.00
13734;BME280;43298;52.560;13.508;2023-03-04T05:55:21;100975.53;;;4.76;100.00
13734;BME280;43298;52.560;13.508;2023-03-04T05:57:47;100972.13;;;4.73;100.00
13734;BME280;43298;52.560;13.508;2023-03-04T06:00:15;100971.25;;;4.75;100.00
13734;BME280;43298;52.560;13.508;2023-03-04T06:02:42;100981.47;;;4.75;100.00
13734;BME280;43298;52.560;13.508;2023-03-04T06:05:09;100981.47;;;4.75;100.00
13734;BME280;43298;52.560;13.508;2023-03-04T06:07:36;100977.22;;;4.76;100.00
13734;BME280;43298;52.560;13.508;2023-03-04T06:10:02;100982.38;;;4.74;100.00
13734;BME280;43298;52.560;13.508;2023-03-04T06:12:28;100980.66;;;4.76;100.00
13734;BME280;43298;52.560;13.508;2023-03-04T06:14:54;100977.25;;;4.73;100.00
13734;BME280;43298;52.560;13.508;2023-03-04T06:17:20;100984.94;;;4.73;100.00
13734;BME280;43298;52.560;13.508;2023-03-04T06:19:46;100987.47;;;4.76;100.00
13734;BME280;43298;52.560;13.508;2023-03-04T06:22:12;100982.34;;;4.76;100.00
13734;BME280;43298;52.560;13.508;2023-03-04T06:24:38;100980.75;;;4.67;100.00
13734;BME280;43298;52.560;13.508;2023-03-04T06:27:04;100978.16;;;4.70;100.00
13734;BME280;43298;52.560;13.508;2023-03-04T06:29:30;100984.19;;;4.66;100.00
13734;BME280;43298;52.560;13.508;2023-03-04T06:31:55;100979.94;;;4.65;100.00
13734;BME280;43298;52.560;13.508;2023-03-04T06:34:22;100984.22;;;4.63;100.00
13734;BME280;43298;52.560;13.508;2023-03-04T06:36:48;100980.81;;;4.63;100.00
13734;BME280;43298;52.560;13.508;2023-03-04T06:39:14;100985.09;;;4.62;100.00
13734;BME280;43298;52.560;13.508;2023-03-04T06:41:40;100985.94;;;4.63;100.00
13734;BME280;43298;52.560;13.508;2023-03-04T06:44:06;100986.00;;;4.60;100.00
13734;BME280;43298;52.560;13.508;2023-03-04T06:46:33;100982.56;;;4.61;100.00
13734;BME280;43298;52.560;13.508;2023-03-04T06:48:59;100985.13;;;4.61;100.00
13734;BME280;43298;52.560;13.508;2023-03-04T06:51:25;100989.38;;;4.62;100.00
13734;BME280;43298;52.560;13.508;2023-03-04T06:53:51;100993.56;;;4.67;100.00
13734;BME280;43298;52.560;13.508;2023-03-04T06:56:17;100991.84;;;4.69;100.00
13734;BME280;43298;52.560;13.508;2023-03-04T06:58:44;100989.28;;;4.69;100.00
13734;BME280;43298;52.560;13.508;2023-03-04T07:01:19;100993.53;;;4.70;100.00
13734;BME280;43298;52.560;13.508;2023-03-04T07:03:46;100995.25;;;4.68;100.00
13734;BME280;43298;52.560;13.508;2023-03-04T07:06:14;100996.06;;;4.72;100.00
13734;BME280;43298;52.560;13.508;2023-03-04T07:08:41;101001.25;;;4.67;100.00
13734;BME280;43298;52.560;13.508;2023-03-04T07:11:07;101009.81;;;4.66;100.00
13734;BME280;43298;52.560;13.508;2023-03-04T07:13:33;100999.59;;;4.63;100.00
13734;BME280;43298;52.560;13.508;2023-03-04T07:16:07;101005.53;;;4.67;100.00
13734;BME280;43298;52.560;13.508;2023-03-04T07:18:33;101009.78;;;4.68;100.00
13734;BME280;43298;52.560;13.508;2023-03-04T07:20:59;101006.38;;;4.67;100.00
13734;BME280;43298;52.560;13.508;2023-03-04T07:23:25;101008.00;;;4.71;100.00
13734;BME280;43298;52.560;13.508;2023-03-04T07:25:51;101009.66;;;4.77;100.00
13734;BME280;43298;52.560;13.508;2023-03-04T07:28:17;101009.66;;;4.75;100.00
13734;BME280;43298;52.560;13.508;2023-03-04T07:30:43;101004.53;;;4.75;100.00
13734;BME280;43298;52.560;13.508;2023-03-04T07:33:09;101002.03;;;4.74;100.00
13734;BME280;43298;52.560;13.508;2023-03-04T07:35:35;101002.81;;;4.77;100.00
13734;BME280;43298;52.560;13.508;2023-03-04T07:38:01;101001.06;;;4.81;100.00
13734;BME280;43298;52.560;13.508;2023-03-04T07:40:27;101004.38;;;4.89;100.00
13734;BME280;43298;52.560;13.508;2023-03-04T07:42:54;101005.06;;;4.98;100.00
13734;BME280;43298;52.560;13.508;2023-03-04T07:45:21;101005.06;;;5.00;100.00
13734;BME280;43298;52.560;13.508;2023-03-04T07:47:47;101007.63;;;5.00;100.00
13734;BME280;43298;52.560;13.508;2023-03-04T07:50:14;100999.13;;;4.95;100.00
13734;BME280;43298;52.560;13.508;2023-03-04T07:52:42;101000.94;;;4.90;100.00
13734;BME280;43298;52.560;13.508;2023-03-04T07:55:10;100999.13;;;4.95;100.00
13734;BME280;43298;52.560;13.508;2023-03-04T07:57:44;101003.41;;;4.96;100.00
13734;BME280;43298;52.560;13.508;2023-03-04T08:00:12;101007.56;;;5.03;100.00
13734;BME280;43298;52.560;13.508;2023-03-04T08:02:39;101002.41;;;5.06;100.00
13734;BME280;43298;52.560;13.508;2023-03-04T08:05:05;101004.06;;;5.10;100.00
13734;BME280;43298;52.560;13.508;2023-03-04T08:07:32;100996.22;;;5.17;100.00
13734;BME280;43298;52.560;13.508;2023-03-04T08:09:58;100999.66;;;5.16;100.00
13734;BME280;43298;52.560;13.508;2023-03-04T08:12:24;100995.31;;;5.20;100.00
13734;BME280;43298;52.560;13.508;2023-03-04T08:14:51;100990.13;;;5.26;100.00
13734;BME280;43298;52.560;13.508;2023-03-04T08:17:17;100989.22;;;5.27;100.00
13734;BME280;43298;52.560;13.508;2023-03-04T08:19:44;100991.78;;;5.27;100.00
13734;BME280;43298;52.560;13.508;2023-03-04T08:22:10;100985.88;;;5.25;100.00
13734;BME280;43298;52.560;13.508;2023-03-04T08:24:36;100980.72;;;5.26;100.00
13734;BME280;43298;52.560;13.508;2023-03-04T08:27:02;100978.09;;;5.29;100.00
13734;BME280;43298;52.560;13.508;2023-03-04T08:29:28;100980.59;;;5.32;100.00
13734;BME280;43298;52.560;13.508;2023-03-04T08:31:54;100973.81;;;5.30;100.00
13734;BME280;43298;52.560;13.508;2023-03-04T08:34:23;100982.34;;;5.32;100.00
13734;BME280;43298;52.560;13.508;2023-03-04T08:36:50;100978.94;;;5.30;100.00
13734;BME280;43298;52.560;13.508;2023-03-04T08:39:17;100976.38;;;5.30;100.00
13734;BME280;43298;52.560;13.508;2023-03-04T08:41:44;100976.41;;;5.27;100.00
13734;BME280;43298;52.560;13.508;2023-03-04T08:44:11;100978.97;;;5.27;100.00
13734;BME280;43298;52.560;13.508;2023-03-04T08:46:39;100973.84;;;5.27;100.00
13734;BME280;43298;52.560;13.508;2023-03-04T08:49:05;100968.66;;;5.31;100.00
13734;BME280;43298;52.560;13.508;2023-03-04T08:51:32;100967.84;;;5.31;100.00
13734;BME280;43298;52.560;13.508;2023-03-04T08:54:03;100963.44;;;5.37;100.00
13734;BME280;43298;52.560;13.508;2023-03-04T08:56:29;100963.38;;;5.40;100.00
13734;BME280;43298;52.560;13.508;2023-03-04T08:58:55;100962.41;;;5.47;100.00
13734;BME280;43298;52.560;13.508;2023-03-04T09:01:21;100963.06;;;5.58;100.00
13734;BME280;43298;52.560;13.508;2023-03-04T09:03:46;100955.16;;;5.69;100.00
13734;BME280;43298;52.560;13.508;2023-03-04T09:06:16;100948.22;;;5.75;100.00
13734;BME280;43298;52.560;13.508;2023-03-04T09:08:43;100960.13;;;5.78;100.00
13734;BME280;43298;52.560;13.508;2023-03-04T09:11:10;100945.56;;;5.81;100.00
13734;BME280;43298;52.560;13.508;2023-03-04T09:13:37;100948.00;;;5.87;100.00
13734;BME280;43298;52.560;13.508;2023-03-04T09:16:11;100954.66;;;5.97;100.00
13734;BME280;43298;52.560;13.508;2023-03-04T09:18:37;100956.31;;;6.00;100.00
13734;BME280;43298;52.560;13.508;2023-03-04T09:21:05;100962.97;;;6.10;100.00
13734;BME280;43298;52.560;13.508;2023-03-04T09:23:31;100968.78;;;6.18;100.00
13734;BME280;43298;52.560;13.508;2023-03-04T09:25:57;100978.09;;;6.23;100.00
13734;BME280;43298;52.560;13.508;2023-03-04T09:28:22;100981.50;;;6.24;100.00
13734;BME280;43298;52.560;13.508;2023-03-04T09:30:48;100989.03;;;6.32;100.00
13734;BME280;43298;52.560;13.508;2023-03-04T09:33:14;100992.38;;;6.37;100.00
13734;BME280;43298;52.560;13.508;2023-03-04T09:35:40;100998.22;;;6.43;100.00
13734;BME280;43298;52.560;13.508;2023-03-04T09:38:07;101005.19;;;6.38;100.00
13734;BME280;43298;52.560;13.508;2023-03-04T09:40:45;101010.13;;;6.47;100.00
13734;BME280;43298;52.560;13.508;2023-03-04T09:43:25;101008.38;;;6.49;100.00
13734;BME280;43298;52.560;13.508;2023-03-04T09:45:59;101013.53;;;6.49;100.00
13734;BME280;43298;52.560;13.508;2023-03-04T09:48:40;101021.06;;;6.55;100.00
13734;BME280;43298;52.560;13.508;2023-03-04T09:54:09;101016.84;;;6.53;100.00
13734;BME280;43298;52.560;13.508;2023-03-04T09:56:40;101020.28;;;6.53;100.00
13734;BME280;43298;52.560;13.508;2023-03-04T09:59:41;101015.78;;;6.63;100.00
13734;BME280;43298;52.560;13.508;2023-03-04T10:02:25;101008.75;;;6.71;100.00
13734;BME280;43298;52.560;13.508;2023-03-04T10:04:59;101003.69;;;6.68;100.00
13734;BME280;43298;52.560;13.508;2023-03-04T10:07:33;101010.56;;;6.67;100.00
13734;BME280;43298;52.560;13.508;2023-03-04T10:10:12;101008.69;;;6.74;100.00
13734;BME280;43298;52.560;13.508;2023-03-04T10:12:43;101018.06;;;6.76;100.00
13734;BME280;43298;52.560;13.508;2023-03-04T10:15:42;101014.72;;;6.73;100.00
13734;BME280;43298;52.560;13.508;2023-03-04T10:18:41;101016.50;;;6.69;100.00
13734;BME280;43298;52.560;13.508;2023-03-04T10:21:53;101011.13;;;6.81;100.00
13734;BME280;43298;52.560;13.508;2023-03-04T10:24:23;101002.63;;;6.76;100.00
13734;BME280;43298;52.560;13.508;2023-03-04T10:26:57;101018.34;;;7.02;100.00
13734;BME280;43298;52.560;13.508;2023-03-04T10:29:29;101007.25;;;7.00;100.00
13734;BME280;43298;52.560;13.508;2023-03-04T10:31:55;101010.19;;;7.22;100.00
13734;BME280;43298;52.560;13.508;2023-03-04T10:34:22;101007.06;;;7.09;100.00
13734;BME280;43298;52.560;13.508;2023-03-04T10:36:59;101000.13;;;7.11;100.00
13734;BME280;43298;52.560;13.508;2023-03-04T10:39:30;101000.00;;;7.17;100.00
13734;BME280;43298;52.560;13.508;2023-03-04T10:42:05;101003.13;;;7.30;100.00
13734;BME280;43298;52.560;13.508;2023-03-04T10:44:34;100995.94;;;7.42;100.00
13734;BME280;43298;52.560;13.508;2023-03-04T10:47:00;100996.97;;;7.35;100.00
13734;BME280;43298;52.560;13.508;2023-03-04T10:49:29;100990.88;;;7.39;100.00
13734;BME280;43298;52.560;13.508;2023-03-04T10:54:52;100999.56;;;7.35;100.00
13734;BME280;43298;52.560;13.508;2023-03-04T10:57:37;101000.84;;;7.51;100.00
13734;BME280;43298;52.560;13.508;2023-03-04T11:00:26;100989.84;;;7.46;100.00
13734;BME280;43298;52.560;13.508;2023-03-04T11:02:52;101000.19;;;7.43;100.00
13734;BME280;43298;52.560;13.508;2023-03-04T11:05:38;101004.13;;;7.58;100.00
13734;BME280;43298;52.560;13.508;2023-03-04T11:08:04;100999.56;;;7.69;100.00
13734;BME280;43298;52.560;13.508;2023-03-04T11:10:40;101005.97;;;7.85;100.00
13734;BME280;43298;52.560;13.508;2023-03-04T11:13:20;101002.91;;;7.71;100.00
13734;BME280;43298;52.560;13.508;2023-03-04T11:15:59;100988.28;;;7.73;100.00
13734;BME280;43298;52.560;13.508;2023-03-04T11:18:49;100991.47;;;7.82;100.00
13734;BME280;43298;52.560;13.508;2023-03-04T11:21:20;100983.72;;;8.14;100.00
13734;BME280;43298;52.560;13.508;2023-03-04T11:23:59;100990.13;;;8.01;100.00
13734;BME280;43298;52.560;13.508;2023-03-04T11:27:00;100984.72;;;8.09;100.00
13734;BME280;43298;52.560;13.508;2023-03-04T11:29:37;100991.97;;;7.63;100.00
13734;BME280;43298;52.560;13.508;2023-03-04T11:32:28;101000.06;;;7.49;100.00
13734;BME280;43298;52.560;13.508;2023-03-04T11:35:13;100998.59;;;7.39;100.00
13734;BME280;43298;52.560;13.508;2023-03-04T11:37:52;101011.13;;;7.51;100.00
13734;BME280;43298;52.560;13.508;2023-03-04T11:40:53;101004.09;;;7.59;100.00
13734;BME280;43298;52.560;13.508;2023-03-04T11:43:35;101006.97;;;7.47;100.00
13734;BME280;43298;52.560;13.508;2023-03-04T11:51:37;101001.16;;;7.39;100.00
13734;BME280;43298;52.560;13.508;2023-03-04T11:54:31;100999.41;;;7.41;100.00
13734;BME280;43298;52.560;13.508;2023-03-04T11:57:08;101005.81;;;7.24;100.00
13734;BME280;43298;52.560;13.508;2023-03-04T12:02:28;100998.53;;;7.42;100.00
13734;BME280;43298;52.560;13.508;2023-03-04T12:05:11;100985.50;;;7.48;100.00
13734;BME280;43298;52.560;13.508;2023-03-04T12:09:02;100992.56;;;7.40;100.00
13734;BME280;43298;52.560;13.508;2023-03-04T12:11:45;100985.66;;;7.42;100.00
13734;BME280;43298;52.560;13.508;2023-03-04T12:15:07;100991.19;;;7.27;100.00
13734;BME280;43298;52.560;13.508;2023-03-04T12:32:08;100971.91;;;7.43;100.00
13734;BME280;43298;52.560;13.508;2023-03-04T12:41:10;100991.97;;;7.29;100.00
13734;BME280;43298;52.560;13.508;2023-03-04T12:52:58;100984.56;;;6.81;100.00
13734;BME280;43298;52.560;13.508;2023-03-04T12:55:37;100987.22;;;6.76;100.00
13734;BME280;43298;52.560;13.508;2023-03-04T12:58:05;100996.56;;;6.80;100.00
13734;BME280;43298;52.560;13.508;2023-03-04T13:00:45;100993.06;;;6.84;100.00
13734;BME280;43298;52.560;13.508;2023-03-04T13:03:35;100993.72;;;6.92;100.00
13734;BME280;43298;52.560;13.508;2023-03-04T13:06:35;101001.81;;;7.12;100.00
13734;BME280;43298;52.560;13.508;2023-03-04T13:16:47;100986.84;;;6.93;100.00
13734;BME280;43298;52.560;13.508;2023-03-04T13:28:27;100996.97;;;7.00;100.00
13734;BME280;43298;52.560;13.508;2023-03-04T13:36:05;100989.09;;;7.08;100.00
13734;BME280;43298;52.560;13.508;2023-03-04T13:38:36;100993.19;;;7.15;100.00
13734;BME280;43298;52.560;13.508;2023-03-04T13:41:22;100988.34;;;7.01;100.00
13734;BME280;43298;52.560;13.508;2023-03-04T13:43:58;100989.53;;;6.88;100.00
13734;BME280;43298;52.560;13.508;2023-03-04T13:51:42;100994.19;;;6.71;100.00
13734;BME280;43298;52.560;13.508;2023-03-04T13:57:18;101005.47;;;6.66;100.00
13734;BME280;43298;52.560;13.508;2023-03-04T13:59:53;101003.09;;;6.55;100.00
13734;BME280;43298;52.560;13.508;2023-03-04T14:02:23;100998.06;;;6.52;100.00
13734;BME280;43298;52.560;13.508;2023-03-04T14:12:52;100996.59;;;6.39;100.00
13734;BME280;43298;52.560;13.508;2023-03-04T14:15:27;100992.28;;;6.41;100.00
13734;BME280;43298;52.560;13.508;2023-03-04T14:17:59;100998.13;;;6.48;100.00
13734;BME280;43298;52.560;13.508;2023-03-04T14:20:26;100988.56;;;6.54;100.00